Time;durP1;ratioP1;P1;durP2;ratioP2;P2;SDS_P1;SDS_P2;PMS_P1;PMS_P2;Temp;Humidity;BMP_temperature;BMP_pressure;BME280_temperature;BME280_humidity;BME280_pressure;Samples;Min_cycle;Max_cycle;Signal;HPM_P1;HPM_P2
2022/11/23 00:01:28;;;;;;;4.55;2.92;;;230.60;2252.80;;;;;;4999187;28;20030;-78
2022/11/23 00:03:56;;;;;;;5.95;3.33;;;230.60;2252.80;;;;;;5004296;28;20034;-79
2022/11/23 00:06:23;;;;;;;8.93;3.95;;;230.60;2252.80;;;;;;4998326;28;20430;-78
2022/11/23 00:08:50;;;;;;;8.50;3.40;;;230.70;2252.80;;;;;;5006677;28;20032;-77
2022/11/23 00:11:17;;;;;;;5.88;3.10;;;230.70;2252.80;;;;;;4997047;28;20035;-78
2022/11/23 00:13:43;;;;;;;8.05;3.75;;;230.80;2252.80;;;;;;5006336;28;20038;-78
2022/11/23 00:16:18;;;;;;;4.57;2.63;;;230.80;2252.80;;;;;;5015847;28;20394;-78
2022/11/23 00:18:43;;;;;;;5.45;2.72;;;230.80;2252.80;;;;;;5014887;28;20363;-78
2022/11/23 00:21:15;;;;;;;7.10;3.80;;;230.80;2252.80;;;;;;5014542;28;20048;-78
2022/11/23 00:23:41;;;;;;;7.65;3.70;;;230.70;2252.80;;;;;;5018076;28;20387;-84
2022/11/23 00:26:07;;;;;;;6.47;3.72;;;230.70;2252.80;;;;;;5022873;28;20027;-79
2022/11/23 00:28:36;;;;;;;8.45;4.35;;;230.70;2252.80;;;;;;5008081;28;20029;-79
2022/11/23 00:31:01;;;;;;;10.57;3.60;;;230.70;2252.80;;;;;;4994955;28;20023;-78
2022/11/23 00:33:27;;;;;;;7.38;4.13;;;230.60;2252.80;;;;;;4998187;28;20479;-80
2022/11/23 00:36:13;;;;;;;;;;;230.60;2252.80;;;;;;5016093;28;20478;-80
2022/11/23 00:38:39;;;;;;;6.07;3.70;;;230.60;2252.80;;;;;;5016635;28;19905;-83
2022/11/23 00:41:08;;;;;;;10.63;4.40;;;230.50;2252.80;;;;;;5003702;28;20026;-79
2022/11/23 00:43:34;;;;;;;8.27;4.35;;;230.50;2252.80;;;;;;5009382;28;20026;-81
2022/11/23 00:46:09;;;;;;;9.77;4.65;;;230.50;2252.80;;;;;;4996181;28;20026;-78
2022/11/23 00:48:35;;;;;;;8.95;4.45;;;230.40;2252.80;;;;;;5009050;28;20034;-80
2022/11/23 00:51:03;;;;;;;8.70;4.10;;;230.40;2252.80;;;;;;5004159;28;20108;-78
2022/11/23 00:53:28;;;;;;;11.00;4.85;;;230.40;2252.80;;;;;;5001467;28;20041;-82
2022/11/23 00:55:56;;;;;;;9.93;5.00;;;230.40;2252.80;;;;;;5003813;28;20386;-78
2022/11/23 00:58:22;;;;;;;10.57;5.05;;;230.40;2252.80;;;;;;5007090;28;20054;-81
2022/11/23 01:00:47;;;;;;;8.38;4.90;;;230.50;2252.80;;;;;;4993634;28;20071;-82
2022/11/23 01:03:14;;;;;;;7.88;3.60;;;230.40;2252.80;;;;;;4997448;28;20018;-78
2022/11/23 01:05:40;;;;;;;7.47;4.30;;;230.40;2252.80;;;;;;5014700;28;20018;-82
2022/11/23 01:08:07;;;;;;;8.70;4.72;;;230.40;2252.80;;;;;;5016569;28;20033;-78
2022/11/23 01:10:33;;;;;;;10.43;5.00;;;230.50;2252.80;;;;;;5001612;28;20023;-82
2022/11/23 01:12:59;;;;;;;10.65;4.82;;;230.40;2252.80;;;;;;5012716;28;20034;-78
2022/11/23 01:15:25;;;;;;;10.43;5.13;;;230.50;2252.80;;;;;;5013926;28;20029;-84
2022/11/23 01:17:51;;;;;;;10.25;4.72;;;230.40;2252.80;;;;;;4993857;28;20022;-78
2022/11/23 01:20:17;;;;;;;;;;;230.40;2252.80;;;;;;4995287;28;20030;-78
2022/11/23 01:22:42;;;;;;;7.57;4.57;;;230.40;2252.80;;;;;;5000472;28;19925;-78
2022/11/23 01:25:08;;;;;;;;;;;205.70;2252.80;;;;;;5014862;28;20018;-79
2022/11/23 01:27:34;;;;;;;10.90;4.63;;;230.40;2252.80;;;;;;5001075;28;20339;-82
2022/11/23 01:29:59;;;;;;;;;;;230.40;2252.80;;;;;;5012350;28;20030;-77
2022/11/23 01:32:25;;;;;;;12.48;5.28;;;230.40;2252.80;;;;;;5000117;28;19936;-79
2022/11/23 01:34:50;;;;;;;;;;;230.40;2252.80;;;;;;5029372;28;20026;-77
2022/11/23 01:37:16;;;;;;;11.40;5.70;;;230.40;2252.80;;;;;;5021573;28;19906;-78
2022/11/23 01:39:42;;;;;;;;;;;230.40;2252.80;;;;;;5007345;28;20036;-79
2022/11/23 01:42:07;;;;;;;9.77;5.70;;;230.50;2252.80;;;;;;4994441;28;19929;-78
2022/11/23 01:44:35;;;;;;;;;;;230.50;2252.80;;;;;;5012756;28;20060;-78
2022/11/23 01:47:05;;;;;;;;;;;230.40;2252.80;;;;;;5000931;28;19909;-80
2022/11/23 01:49:45;;;;;;;10.13;5.35;;;230.50;2252.80;;;;;;5010812;28;19951;-83
2022/11/23 01:52:16;;;;;;;10.25;4.82;;;230.50;2252.80;;;;;;4998823;28;20045;-78
2022/11/23 01:54:55;;;;;;;9.52;5.43;;;230.50;2252.80;;;;;;5013692;28;20388;-80
2022/11/23 01:57:37;;;;;;;9.52;5.13;;;230.50;2252.80;;;;;;5017029;28;20033;-78
2022/11/23 02:00:04;;;;;;;9.70;5.10;;;230.50;2252.80;;;;;;5016155;28;20057;-78
2022/11/23 02:02:31;;;;;;;11.10;4.93;;;230.50;2252.80;;;;;;5011991;28;20069;-78
2022/11/23 02:04:59;;;;;;;10.00;5.40;;;230.50;2252.80;;;;;;5006814;28;20062;-77
2022/11/23 02:07:27;;;;;;;9.80;5.35;;;230.60;2252.80;;;;;;5021405;28;20076;-78
2022/11/23 02:09:53;;;;;;;7.97;4.95;;;230.60;2252.80;;;;;;5013061;28;20030;-78
2022/11/23 02:12:18;;;;;;;11.02;5.25;;;230.60;2252.80;;;;;;5013144;28;20535;-79
2022/11/23 02:14:44;;;;;;;;;;;230.60;2252.80;;;;;;5009087;28;20045;-84
2022/11/23 02:17:10;;;;;;;7.85;4.88;;;230.60;2252.80;;;;;;4992747;28;20342;-78
2022/11/23 02:19:54;;;;;;;;;;;230.60;2252.80;;;;;;5005444;28;20181;-78
2022/11/23 02:22:49;;;;;;;10.27;4.45;;;230.50;2252.80;;;;;;5024603;28;19973;-82
2022/11/23 02:25:29;;;;;;;10.77;5.25;;;230.50;2252.80;;;;;;4990025;28;20049;-78
2022/11/23 02:27:55;;;;;;;8.75;5.13;;;230.50;2252.80;;;;;;4980888;28;20038;-81
2022/11/23 02:30:21;;;;;;;13.13;6.00;;;230.50;2252.80;;;;;;4990928;28;20026;-78
2022/11/23 02:32:47;;;;;;;8.23;5.22;;;230.40;2252.80;;;;;;4984362;28;20038;-77
2022/11/23 02:35:12;;;;;;;;;;;230.40;2252.80;;;;;;4988043;28;20147;-78
2022/11/23 02:37:40;;;;;;;10.43;5.50;;;230.40;2252.80;;;;;;4966500;28;20000;-78
2022/11/23 02:40:18;;;;;;;9.00;6.22;;;205.70;2252.80;;;;;;4991324;28;20571;-78
2022/11/23 02:42:45;;;;;;;13.18;5.85;;;230.40;2252.80;;;;;;4990597;28;20034;-78
2022/11/23 02:45:11;;;;;;;15.00;5.82;;;205.70;2252.80;;;;;;4975010;28;20033;-79
2022/11/23 02:47:36;;;;;;;10.80;6.28;;;205.70;2252.80;;;;;;4991095;28;20018;-78
2022/11/23 02:50:02;;;;;;;;;;;205.70;2252.80;;;;;;4990451;28;20129;-79
2022/11/23 02:52:28;;;;;;;8.38;4.43;;;205.70;2252.80;;;;;;4962318;28;19922;-85
2022/11/23 02:54:53;;;;;;;;;;;205.70;2252.80;;;;;;4988255;28;20511;-78
2022/11/23 02:57:19;;;;;;;10.82;6.30;;;205.60;2252.80;;;;;;4963190;28;19906;-78
2022/11/23 02:59:44;;;;;;;;;;;205.70;2252.80;;;;;;4989809;28;20030;-78
2022/11/23 03:02:10;;;;;;;8.73;5.85;;;205.70;2252.80;;;;;;4973061;28;20362;-78
2022/11/23 03:04:36;;;;;;;;;;;205.60;2252.80;;;;;;4992048;28;20125;-78
2022/11/23 03:07:02;;;;;;;12.65;5.95;;;205.60;2252.80;;;;;;4991799;28;19916;-79
2022/11/23 03:09:28;;;;;;;;;;;205.70;2252.80;;;;;;5007825;28;20034;-79
2022/11/23 03:11:54;;;;;;;12.75;7.13;;;205.60;2252.80;;;;;;5001577;28;19953;-78
2022/11/23 03:14:20;;;;;;;;;;;205.60;2252.80;;;;;;5007677;28;20022;-78
2022/11/23 03:16:46;;;;;;;11.45;6.40;;;205.60;2252.80;;;;;;4995979;28;19906;-79
2022/11/23 03:19:11;;;;;;;;;;;205.60;2252.80;;;;;;4999545;28;20490;-79
2022/11/23 03:21:37;;;;;;;13.05;8.10;;;205.70;2252.80;;;;;;5004847;28;19914;-77
2022/11/23 03:24:02;;;;;;;;;;;205.60;2252.80;;;;;;4999411;28;20482;-78
2022/11/23 03:26:28;;;;;;;16.20;7.40;;;205.60;2252.80;;;;;;5015361;28;19905;-77
2022/11/23 03:28:54;;;;;;;;;;;205.60;2252.80;;;;;;5015179;28;20022;-83
2022/11/23 03:31:20;;;;;;;15.65;7.47;;;205.60;2252.80;;;;;;5014681;28;19913;-82
2022/11/23 03:33:45;;;;;;;;;;;205.70;2252.80;;;;;;5015360;28;20072;-78
2022/11/23 03:36:11;;;;;;;14.52;7.22;;;205.60;2252.80;;;;;;5003077;28;20351;-77
2022/11/23 03:38:36;;;;;;;;;;;205.60;2252.80;;;;;;5017395;28;20050;-78
2022/11/23 03:41:02;;;;;;;14.48;7.50;;;205.60;2252.80;;;;;;5014720;28;19909;-85
2022/11/23 03:43:28;;;;;;;;;;;205.60;2252.80;;;;;;5025454;28;20533;-78
2022/11/23 03:45:53;;;;;;;13.43;8.10;;;205.60;2252.80;;;;;;5014416;28;19905;-78
2022/11/23 03:48:19;;;;;;;;;;;205.60;2252.80;;;;;;5002101;28;20470;-77
2022/11/23 03:50:45;;;;;;;13.40;7.82;;;205.70;2252.80;;;;;;5007676;28;19910;-83
2022/11/23 03:53:10;;;;;;;;;;;205.60;2252.80;;;;;;5008414;28;20045;-79
2022/11/23 03:55:36;;;;;;;17.70;9.38;;;205.70;2252.80;;;;;;5002056;28;19909;-78
2022/11/23 03:58:02;;;;;;;;;;;205.70;2252.80;;;;;;5013544;28;20040;-78
2022/11/23 04:00:29;;;;;;;14.85;7.80;;;205.60;2252.80;;;;;;4994991;28;19906;-84
2022/11/23 04:02:55;;;;;;;18.75;10.15;;;205.70;2252.80;;;;;;4994520;28;20019;-78
2022/11/23 04:05:21;;;;;;;15.82;7.68;;;205.70;2252.80;;;;;;5003090;28;20022;-78
2022/11/23 04:07:48;;;;;;;15.10;8.48;;;205.70;2252.80;;;;;;5011616;28;20037;-77
2022/11/23 04:10:18;;;;;;;15.57;8.23;;;205.70;2252.80;;;;;;5011015;28;20031;-77
2022/11/23 04:12:44;;;;;;;14.95;8.00;;;205.70;2252.80;;;;;;4997285;28;20394;-79
2022/11/23 04:15:11;;;;;;;15.32;7.70;;;205.70;2252.80;;;;;;5015412;28;20025;-78
2022/11/23 04:17:37;;;;;;;14.57;7.63;;;205.70;2252.80;;;;;;5001987;28;20108;-78
2022/11/23 04:20:03;;;;;;;;;;;205.70;2252.80;;;;;;5014161;28;20037;-77
2022/11/23 04:22:29;;;;;;;12.95;7.68;;;230.40;2252.80;;;;;;5000747;28;19963;-78
2022/11/23 04:24:54;;;;;;;;;;;230.40;2252.80;;;;;;5013574;28;20029;-78
2022/11/23 04:27:20;;;;;;;14.45;8.00;;;230.40;2252.80;;;;;;5013956;28;19905;-78
2022/11/23 04:29:45;;;;;;;;;;;230.40;2252.80;;;;;;5002109;28;20033;-77
2022/11/23 04:32:11;;;;;;;17.05;8.65;;;230.40;2252.80;;;;;;5012355;28;19936;-78
2022/11/23 04:34:37;;;;;;;;;;;205.70;2252.80;;;;;;5002197;28;20472;-77
2022/11/23 04:37:02;;;;;;;16.77;8.15;;;205.70;2252.80;;;;;;5006831;28;20012;-78
2022/11/23 04:39:28;;;;;;;;;;;205.70;2252.80;;;;;;4994068;28;20038;-77
2022/11/23 04:41:54;;;;;;;15.82;8.10;;;205.70;2252.80;;;;;;5007006;28;19997;-77
2022/11/23 04:44:22;;;;;;;;;;;205.70;2252.80;;;;;;4995502;28;20022;-78
2022/11/23 04:46:49;;;;;;;14.55;7.93;;;205.70;2252.80;;;;;;5023081;28;19909;-74
2022/11/23 04:49:15;;;;;;;15.45;7.55;;;205.70;2252.80;;;;;;4993568;28;20058;-75
2022/11/23 04:51:40;;;;;;;17.38;8.45;;;205.60;2252.80;;;;;;5005669;28;20045;-75
2022/11/23 04:54:06;;;;;;;;;;;205.60;2252.80;;;;;;5010169;28;20406;-76
2022/11/23 04:56:32;;;;;;;16.63;7.65;;;205.60;2252.80;;;;;;5008072;28;20370;-78
2022/11/23 04:58:57;;;;;;;;;;;205.60;2252.80;;;;;;5013742;28;20156;-80
2022/11/23 05:01:23;;;;;;;14.35;7.75;;;205.60;2252.80;;;;;;5013166;28;19937;-78
2022/11/23 05:03:49;;;;;;;15.35;7.55;;;205.60;2252.80;;;;;;5013671;28;20103;-76
2022/11/23 05:06:14;;;;;;;;;;;205.60;2252.80;;;;;;5000430;28;20037;-82
2022/11/23 05:08:42;;;;;;;14.10;7.70;;;205.60;2252.80;;;;;;5005011;28;19957;-77
2022/11/23 05:11:08;;;;;;;15.73;8.20;;;205.60;2252.80;;;;;;4994106;28;20022;-76
2022/11/23 05:13:33;;;;;;;;;;;205.70;2252.80;;;;;;4993864;28;20041;-76
2022/11/23 05:15:59;;;;;;;13.60;7.55;;;205.60;2252.80;;;;;;5012921;28;19905;-82
2022/11/23 05:18:24;;;;;;;;;;;205.70;2252.80;;;;;;5003872;28;20428;-76
2022/11/23 05:20:50;;;;;;;17.00;8.38;;;205.70;2252.80;;;;;;5010257;28;19928;-76
2022/11/23 05:23:16;;;;;;;;;;;205.70;2252.80;;;;;;5003353;28;20030;-76
2022/11/23 05:25:41;;;;;;;27.70;7.30;;;205.70;2252.80;;;;;;4994457;28;19909;-76
2022/11/23 05:28:13;;;;;;;;;;;205.70;2252.80;;;;;;4993167;28;20125;-77
2022/11/23 05:30:39;;;;;;;12.07;6.72;;;230.40;2252.80;;;;;;5011523;28;20309;-76
2022/11/23 05:33:05;;;;;;;14.98;7.63;;;205.70;2252.80;;;;;;5012221;28;20379;-79
2022/11/23 05:35:30;;;;;;;14.02;7.55;;;230.40;2252.80;;;;;;5011458;28;20126;-77
2022/11/23 05:37:57;;;;;;;;;;;230.40;2252.80;;;;;;4999933;28;20030;-79
2022/11/23 05:40:23;;;;;;;14.80;6.93;;;230.50;2252.80;;;;;;4993359;28;20428;-82
2022/11/23 05:42:53;;;;;;;22.45;7.75;;;230.40;2252.80;;;;;;4999301;28;20038;-77
2022/11/23 05:45:19;;;;;;;19.50;8.73;;;230.50;2252.80;;;;;;5010692;28;20031;-79
2022/11/23 05:47:56;;;;;;;;;;;230.50;2252.80;;;;;;5029864;28;20593;-80
2022/11/23 05:50:23;;;;;;;12.45;6.57;;;230.50;2252.80;;;;;;5012685;28;20270;-80
2022/11/23 05:52:49;;;;;;;18.60;8.98;;;230.40;2252.80;;;;;;5001330;28;20080;-79
2022/11/23 05:55:15;;;;;;;18.50;9.02;;;230.40;2252.80;;;;;;5022810;28;20074;-79
2022/11/23 05:57:40;;;;;;;;;;;230.50;2252.80;;;;;;4993625;28;20026;-78
2022/11/23 06:00:09;;;;;;;14.90;8.38;;;230.50;2252.80;;;;;;5006216;28;19912;-79
2022/11/23 06:02:35;;;;;;;19.83;7.72;;;230.60;2252.80;;;;;;5004695;28;20053;-80
2022/11/23 06:05:01;;;;;;;16.55;8.00;;;230.50;2252.80;;;;;;5006826;28;20065;-79
2022/11/23 06:07:27;;;;;;;;;;;230.50;2252.80;;;;;;4993090;28;20022;-79
2022/11/23 06:09:52;;;;;;;14.90;8.10;;;230.60;2252.80;;;;;;4993089;28;19992;-79
2022/11/23 06:12:18;;;;;;;;;;;230.60;2252.80;;;;;;4992922;28;20541;-79
2022/11/23 06:14:44;;;;;;;15.15;8.90;;;230.50;2252.80;;;;;;4992542;28;19993;-79
2022/11/23 06:17:09;;;;;;;;;;;230.60;2252.80;;;;;;5022254;28;20026;-79
2022/11/23 06:19:35;;;;;;;17.98;8.55;;;230.60;2252.80;;;;;;4993794;28;19952;-78
2022/11/23 06:22:01;;;;;;;15.70;7.35;;;230.60;2252.80;;;;;;4992546;28;20093;-79
2022/11/23 06:24:26;;;;;;;;;;;230.60;2252.80;;;;;;5005005;28;20467;-79
2022/11/23 06:26:52;;;;;;;17.38;7.55;;;230.60;2252.80;;;;;;5006082;28;19920;-78
2022/11/23 06:29:21;;;;;;;17.90;8.60;;;230.60;2252.80;;;;;;5004015;28;20069;-78
2022/11/23 06:31:47;;;;;;;17.55;9.13;;;230.60;2252.80;;;;;;5007157;28;20041;-78
2022/11/23 06:34:13;;;;;;;15.88;8.35;;;230.60;2252.80;;;;;;5005979;28;20026;-79
2022/11/23 06:36:38;;;;;;;;;;;230.60;2252.80;;;;;;4992970;28;20030;-79
2022/11/23 06:39:04;;;;;;;16.55;8.88;;;230.60;2252.80;;;;;;5011054;28;19939;-79
2022/11/23 06:41:30;;;;;;;;;;;230.60;2252.80;;;;;;5012457;28;20029;-78
2022/11/23 06:43:55;;;;;;;24.33;9.35;;;230.70;2252.80;;;;;;5027129;28;19912;-79
2022/11/23 06:46:21;;;;;;;;;;;230.70;2252.80;;;;;;5012343;28;20029;-78
2022/11/23 06:48:47;;;;;;;14.23;7.88;;;230.70;2252.80;;;;;;5013469;28;19972;-81
2022/11/23 06:51:14;;;;;;;15.45;8.35;;;230.70;2252.80;;;;;;4998467;28;20430;-78
2022/11/23 06:53:40;;;;;;;17.63;8.95;;;230.70;2252.80;;;;;;5011389;28;20030;-87
2022/11/23 06:56:06;;;;;;;13.07;7.55;;;230.70;2252.80;;;;;;5009342;28;20026;-78
2022/11/23 06:58:33;;;;;;;15.48;8.10;;;230.70;2252.80;;;;;;5002910;28;20482;-79
2022/11/23 07:01:04;;;;;;;14.80;8.10;;;230.70;2252.80;;;;;;5011131;28;20026;-79
2022/11/23 07:03:30;;;;;;;16.15;8.65;;;230.70;2252.80;;;;;;4993076;28;20041;-82
2022/11/23 07:05:56;;;;;;;17.08;9.55;;;230.70;2252.80;;;;;;5005553;28;20398;-82
2022/11/23 07:08:23;;;;;;;16.85;9.38;;;230.70;2252.80;;;;;;5003267;28;20039;-83
2022/11/23 07:10:48;;;;;;;16.60;8.82;;;230.80;2252.80;;;;;;5005527;28;20057;-79
2022/11/23 07:13:14;;;;;;;21.70;9.00;;;230.80;2252.80;;;;;;4993016;28;20507;-79
2022/11/23 07:15:40;;;;;;;;;;;230.90;2252.80;;;;;;5004918;28;20101;-82
2022/11/23 07:18:06;;;;;;;22.05;9.27;;;230.90;2252.80;;;;;;4991615;28;19905;-78
2022/11/23 07:20:33;;;;;;;18.13;9.35;;;230.90;2252.80;;;;;;5004534;28;20030;-79
2022/11/23 07:23:05;;;;;;;14.13;8.63;;;230.90;2252.80;;;;;;4991815;28;20019;-77
2022/11/23 07:25:32;;;;;;;16.90;9.65;;;231.00;2252.80;;;;;;4991434;28;20089;-81
2022/11/23 07:27:59;;;;;;;20.75;10.23;;;231.10;2252.80;;;;;;4993337;28;20025;-79
2022/11/23 07:30:25;;;;;;;17.13;8.98;;;231.10;2252.80;;;;;;5011524;28;20117;-80
2022/11/23 07:32:52;;;;;;;15.98;8.93;;;231.20;2252.80;;;;;;5011372;28;20065;-81
2022/11/23 07:35:19;;;;;;;20.15;7.97;;;231.30;2252.80;;;;;;5002550;28;20029;-80
2022/11/23 07:37:46;;;;;;;16.77;7.63;;;231.30;2252.80;;;;;;4991344;28;20030;-79
2022/11/23 07:40:12;;;;;;;16.08;8.27;;;256.00;2252.80;;;;;;5001711;28;20018;-78
2022/11/23 07:42:38;;;;;;;18.23;7.40;;;256.00;2252.80;;;;;;5012415;28;20040;-79
2022/11/23 07:45:05;;;;;;;14.63;8.18;;;256.10;2252.80;;;;;;5012070;28;20406;-79
2022/11/23 07:47:30;;;;;;;15.43;8.40;;;256.20;2252.80;;;;;;5004593;28;20018;-86
2022/11/23 07:49:56;;;;;;;19.48;9.98;;;256.20;2252.80;;;;;;5003661;28;20033;-79
2022/11/23 07:52:22;;;;;;;21.92;9.32;;;256.30;2252.80;;;;;;4993827;28;20046;-79
2022/11/23 07:54:47;;;;;;;;;;;256.40;2252.80;;;;;;5001885;28;20032;-79
2022/11/23 07:57:13;;;;;;;15.43;7.32;;;256.40;2252.80;;;;;;5011275;28;19909;-79
2022/11/23 07:59:39;;;;;;;;;;;256.40;2252.80;;;;;;5013085;28;20049;-80
2022/11/23 08:02:05;;;;;;;14.63;8.10;;;256.40;2252.80;;;;;;5014285;28;19909;-85
2022/11/23 08:04:31;;;;;;;15.23;7.88;;;256.40;2252.80;;;;;;4997271;28;20030;-82
2022/11/23 08:06:56;;;;;;;18.90;8.15;;;256.60;2252.80;;;;;;5006750;28;20023;-78
2022/11/23 08:09:22;;;;;;;;;;;256.70;2252.80;;;;;;4996414;28;20030;-82
2022/11/23 08:11:48;;;;;;;21.20;8.75;;;256.70;2252.80;;;;;;5002987;28;19920;-78
2022/11/23 08:14:13;;;;;;;;;;;256.80;2252.80;;;;;;5015739;28;20030;-78
2022/11/23 08:16:39;;;;;;;15.68;7.68;;;256.80;2252.80;;;;;;5015606;28;19909;-79
2022/11/23 08:19:05;;;;;;;16.85;8.45;;;256.70;2252.80;;;;;;5003311;28;20367;-80
2022/11/23 08:21:31;;;;;;;;;;;256.60;2252.80;;;;;;5024750;28;20045;-79
2022/11/23 08:23:56;;;;;;;15.18;8.48;;;256.50;2252.80;;;;;;5004092;28;19909;-81
2022/11/23 08:26:22;;;;;;;;;;;256.50;2252.80;;;;;;5010671;28;20026;-78
2022/11/23 08:28:49;;;;;;;13.85;7.72;;;256.50;2252.80;;;;;;5030699;28;19927;-87
2022/11/23 08:31:15;;;;;;;13.95;8.02;;;256.50;2252.80;;;;;;5014010;28;20121;-79
2022/11/23 08:33:41;;;;;;;15.10;7.75;;;256.50;2252.80;;;;;;5014145;28;20108;-79
2022/11/23 08:36:07;;;;;;;13.10;7.53;;;256.60;2252.80;;;;;;5002307;28;20117;-79
2022/11/23 08:38:34;;;;;;;18.73;7.65;;;256.70;2252.80;;;;;;5001965;28;20092;-79
2022/11/23 08:41:01;;;;;;;18.55;8.38;;;256.80;2252.80;;;;;;5007308;28;20026;-86
2022/11/23 08:43:27;;;;;;;15.55;7.20;;;256.90;2252.80;;;;;;5006884;28;20053;-87
2022/11/23 08:45:54;;;;;;;16.17;7.88;;;281.60;2278.40;;;;;;5009322;28;20030;-81
2022/11/23 08:48:20;;;;;;;16.60;7.72;;;256.90;2252.80;;;;;;5005200;28;20026;-82
2022/11/23 08:50:46;;;;;;;14.93;7.90;;;281.80;2278.40;;;;;;5019336;28;20080;-80
2022/11/23 08:53:11;;;;;;;19.20;9.95;;;281.90;2278.40;;;;;;5001777;28;20042;-86
2022/11/23 08:55:37;;;;;;;17.52;8.73;;;281.90;2278.40;;;;;;5001263;28;20418;-82
2022/11/23 08:58:03;;;;;;;14.93;8.63;;;282.00;2278.40;;;;;;5012354;28;20049;-79
2022/11/23 09:00:29;;;;;;;20.00;10.27;;;282.00;2278.40;;;;;;5002217;28;20029;-83
2022/11/23 09:02:57;;;;;;;19.23;9.13;;;282.00;2278.40;;;;;;4999394;28;20030;-80
2022/11/23 09:05:23;;;;;;;23.25;11.27;;;282.00;2278.40;;;;;;5000843;28;20094;-81
2022/11/23 09:07:49;;;;;;;17.70;9.93;;;282.00;2278.40;;;;;;5002865;28;20038;-78
2022/11/23 09:10:16;;;;;;;17.17;10.10;;;282.00;2278.40;;;;;;5005881;28;20394;-89
2022/11/23 09:12:42;;;;;;;18.08;10.20;;;281.90;2278.40;;;;;;5013169;28;20034;-79
2022/11/23 09:15:08;;;;;;;18.90;10.55;;;281.90;2278.40;;;;;;5029769;28;20116;-80
2022/11/23 09:17:34;;;;;;;20.88;10.80;;;282.00;2278.40;;;;;;5013304;28;20528;-81
2022/11/23 09:20:00;;;;;;;21.02;10.75;;;282.00;2278.40;;;;;;5013370;28;20022;-79
2022/11/23 09:22:26;;;;;;;25.10;11.48;;;282.00;2278.40;;;;;;5014761;28;20073;-79
2022/11/23 09:24:52;;;;;;;19.80;10.85;;;281.90;2278.40;;;;;;5010330;28;20049;-80
2022/11/23 09:27:18;;;;;;;21.67;12.77;;;282.10;2278.40;;;;;;5006675;28;20540;-77
2022/11/23 09:29:44;;;;;;;19.50;9.68;;;282.20;2278.40;;;;;;5013081;28;20033;-81
2022/11/23 09:32:09;;;;;;;18.60;10.48;;;282.40;2278.40;;;;;;5029658;28;20030;-84
2022/11/23 09:34:35;;;;;;;;;;;282.50;2278.40;;;;;;4997406;28;20521;-79
2022/11/23 09:37:01;;;;;;;24.48;10.45;;;282.50;2278.40;;;;;;5002080;28;19932;-76
2022/11/23 09:39:26;;;;;;;23.58;10.85;;;282.50;2278.40;;;;;;5013159;28;20497;-85
2022/11/23 09:41:55;;;;;;;16.65;10.50;;;282.50;2278.40;;;;;;5012813;28;20037;-84
2022/11/23 09:44:48;;;;;;;13.77;9.15;;;307.20;2304.00;;;;;;5016340;28;20034;-83
2022/11/23 09:47:28;;;;;;;18.92;9.93;;;307.30;2304.00;;;;;;5026494;28;20076;-82
2022/11/23 09:50:24;;;;;;;19.95;9.30;;;307.30;2304.00;;;;;;5009902;28;20026;-83
2022/11/23 09:52:51;;;;;;;18.00;10.48;;;307.30;2304.00;;;;;;5017199;28;20057;-83
2022/11/23 09:55:31;;;;;;;18.15;9.15;;;307.20;2304.00;;;;;;5012362;28;20030;-83
2022/11/23 09:58:02;;;;;;;25.88;11.40;;;307.20;2304.00;;;;;;5027306;28;20479;-84
2022/11/23 10:00:35;;;;;;;18.35;10.13;;;307.20;2304.00;;;;;;5002177;28;20038;-85
2022/11/23 10:03:02;;;;;;;19.38;11.68;;;307.20;2304.00;;;;;;5024038;28;20262;-83
2022/11/23 10:05:34;;;;;;;22.60;10.35;;;307.40;2304.00;;;;;;5007168;28;20114;-81
2022/11/23 10:08:12;;;;;;;18.98;10.75;;;307.30;2304.00;;;;;;4994684;28;20026;-86
2022/11/23 10:11:09;;;;;;;19.23;11.10;;;307.40;2304.00;;;;;;4999901;28;20508;-85
2022/11/23 10:14:12;;;;;;;18.00;10.85;;;307.50;2304.00;;;;;;5012558;28;20042;-85
2022/11/23 10:16:51;;;;;;;22.00;11.00;;;307.50;2304.00;;;;;;4995912;28;20475;-86
2022/11/23 10:19:23;;;;;;;16.17;9.55;;;307.50;2304.00;;;;;;5006739;28;20034;-86
2022/11/23 10:21:48;;;;;;;17.33;10.52;;;307.70;2304.00;;;;;;5000577;28;20030;-87
2022/11/23 10:24:23;;;;;;;19.02;11.15;;;332.80;2329.60;;;;;;5012473;28;20034;-86
2022/11/23 10:26:49;;;;;;;17.48;10.13;;;333.40;2329.60;;;;;;5014043;28;20021;-86
2022/11/23 10:29:29;;;;;;;18.17;11.82;;;333.40;2329.60;;;;;;4998838;28;20055;-86
2022/11/23 10:31:56;;;;;;;17.02;10.13;;;333.20;2329.60;;;;;;5012449;28;20095;-85
2022/11/23 10:34:45;;;;;;;21.63;11.27;;;333.10;2329.60;;;;;;5012564;28;20026;-85
2022/11/23 10:37:13;;;;;;;20.23;11.10;;;333.30;2329.60;;;;;;5003303;28;20117;-85
2022/11/23 10:39:39;;;;;;;39.30;19.67;;;333.40;2329.60;;;;;;4999648;28;20030;-87
2022/11/23 10:42:18;;;;;;;42.10;20.88;;;333.20;2329.60;;;;;;5013665;28;20022;-86
2022/11/23 10:44:46;;;;;;;27.25;15.10;;;333.00;2329.60;;;;;;5012296;28;20030;-85
2022/11/23 10:47:36;;;;;;;19.17;11.55;;;333.10;2329.60;;;;;;5013527;28;20018;-86
2022/11/23 10:50:02;;;;;;;17.15;9.63;;;333.10;2329.60;;;;;;5012783;28;20026;-86
2022/11/23 10:52:31;;;;;;;21.02;9.43;;;333.00;2329.60;;;;;;5010969;28;20046;-86
2022/11/23 10:55:00;;;;;;;14.32;8.80;;;333.00;2329.60;;;;;;5018588;28;20110;-86
2022/11/23 10:57:43;;;;;;;15.70;9.32;;;333.00;2329.60;;;;;;5012379;28;20026;-86
2022/11/23 11:00:14;;;;;;;19.80;10.13;;;333.00;2329.60;;;;;;5012085;28;20037;-87
2022/11/23 11:02:44;;;;;;;15.82;9.35;;;333.00;2329.60;;;;;;5012521;28;20022;-87
2022/11/23 11:05:27;;;;;;;16.42;9.38;;;332.90;2329.60;;;;;;5012010;28;20030;-86
2022/11/23 11:07:59;;;;;;;18.45;10.32;;;332.80;2329.60;;;;;;5024986;28;20403;-86
2022/11/23 11:10:33;;;;;;;23.13;12.90;;;308.10;2304.00;;;;;;5019638;28;20022;-85
2022/11/23 11:12:59;;;;;;;23.05;15.85;;;308.10;2304.00;;;;;;5011760;28;20025;-84
2022/11/23 11:15:25;;;;;;;26.52;17.33;;;308.00;2304.00;;;;;;5011755;28;20037;-82
2022/11/23 11:17:56;;;;;;;32.15;19.88;;;307.90;2304.00;;;;;;5013197;28;20030;-84
2022/11/23 11:20:26;;;;;;;27.10;18.83;;;307.80;2304.00;;;;;;5012464;28;20568;-84
2022/11/23 11:22:56;;;;;;;36.88;22.52;;;307.70;2304.00;;;;;;5028590;28;20041;-82
2022/11/23 11:25:28;;;;;;;35.28;20.17;;;307.70;2304.00;;;;;;5011825;28;20033;-82
2022/11/23 11:27:55;;;;;;;34.88;20.00;;;307.60;2304.00;;;;;;5016589;28;20108;-83
2022/11/23 11:30:29;;;;;;;36.05;23.02;;;307.60;2304.00;;;;;;5013373;28;20117;-83
2022/11/23 11:33:09;;;;;;;38.60;27.17;;;307.60;2304.00;;;;;;5001913;28;20064;-80
2022/11/23 11:35:39;;;;;;;40.75;27.52;;;307.50;2304.00;;;;;;5015021;28;20113;-80
2022/11/23 11:38:33;;;;;;;41.47;27.67;;;307.40;2304.00;;;;;;5015322;28;20033;-83
2022/11/23 11:41:06;;;;;;;41.90;27.10;;;307.30;2304.00;;;;;;5021509;28;20545;-80
2022/11/23 11:43:34;;;;;;;44.58;27.52;;;307.30;2304.00;;;;;;5013179;28;20405;-81
2022/11/23 11:46:15;;;;;;;39.55;24.20;;;307.30;2304.00;;;;;;5003708;28;20034;-80
2022/11/23 11:48:56;;;;;;;44.85;25.77;;;307.20;2304.00;;;;;;4999189;28;20109;-80
2022/11/23 11:51:28;;;;;;;38.85;24.33;;;282.50;2278.40;;;;;;4996308;28;20051;-78
2022/11/23 11:54:24;;;;;;;46.40;26.45;;;282.40;2278.40;;;;;;5001005;28;20037;-77
2022/11/23 11:56:56;;;;;;;25.73;16.38;;;282.40;2278.40;;;;;;5009908;28;20033;-78
2022/11/23 11:59:29;;;;;;;49.33;23.38;;;282.40;2278.40;;;;;;5006714;28;20030;-79
2022/11/23 12:02:19;;;;;;;36.63;20.52;;;282.20;2278.40;;;;;;5007602;28;20157;-78
2022/11/23 12:05:10;;;;;;;51.38;22.35;;;282.10;2278.40;;;;;;5010351;28;20041;-79
2022/11/23 12:07:45;;;;;;;34.85;19.23;;;282.10;2278.40;;;;;;4996236;28;20500;-80
2022/11/23 12:10:17;;;;;;;32.10;18.97;;;282.00;2278.40;;;;;;5014157;28;20033;-81
2022/11/23 12:12:43;;;;;;;33.88;18.13;;;282.00;2278.40;;;;;;5003706;28;20487;-81
2022/11/23 12:15:20;;;;;;;33.83;17.58;;;282.10;2278.40;;;;;;5013419;28;20029;-83
2022/11/23 12:18:04;;;;;;;26.55;17.25;;;282.00;2278.40;;;;;;5014519;28;20022;-81
2022/11/23 12:20:58;;;;;;;25.83;16.77;;;282.00;2278.40;;;;;;5013811;28;20030;-80
2022/11/23 12:23:34;;;;;;;23.85;15.95;;;282.00;2278.40;;;;;;5012238;28;20532;-79
2022/11/23 12:26:29;;;;;;;26.92;16.67;;;282.00;2278.40;;;;;;5021226;28;20068;-79
2022/11/23 12:29:23;;;;;;;31.55;17.30;;;281.90;2278.40;;;;;;5013665;28;20022;-77
2022/11/23 12:31:56;;;;;;;23.00;14.27;;;281.80;2278.40;;;;;;5013103;28;20103;-81